sensor_id;sensor_type;location;lat;lon;timestamp;P1;durP1;ratioP1;P2;durP2;ratioP2
51286;SDS011;37364;46.974;18.916;2024-02-15T00:00:56;17.13;;;11.70;;
51286;SDS011;37364;46.974;18.916;2024-02-15T00:03:27;18.10;;;12.45;;
51286;SDS011;37364;46.974;18.916;2024-02-15T00:06:00;22.98;;;11.65;;
51286;SDS011;37364;46.974;18.916;2024-02-15T00:08:33;20.30;;;10.57;;
51286;SDS011;37364;46.974;18.916;2024-02-15T00:11:03;18.35;;;11.45;;
51286;SDS011;37364;46.974;18.916;2024-02-15T00:13:35;18.85;;;11.13;;
51286;SDS011;37364;46.974;18.916;2024-02-15T00:16:05;17.85;;;9.45;;
51286;SDS011;37364;46.974;18.916;2024-02-15T00:18:35;16.75;;;10.40;;
51286;SDS011;37364;46.974;18.916;2024-02-15T00:21:09;21.55;;;10.25;;
51286;SDS011;37364;46.974;18.916;2024-02-15T00:23:41;16.02;;;10.00;;
51286;SDS011;37364;46.974;18.916;2024-02-15T00:26:11;21.25;;;11.65;;
51286;SDS011;37364;46.974;18.916;2024-02-15T00:28:41;19.20;;;9.93;;
51286;SDS011;37364;46.974;18.916;2024-02-15T00:31:13;13.80;;;9.77;;
51286;SDS011;37364;46.974;18.916;2024-02-15T00:33:45;16.33;;;9.73;;
51286;SDS011;37364;46.974;18.916;2024-02-15T00:36:19;11.77;;;8.90;;
51286;SDS011;37364;46.974;18.916;2024-02-15T00:38:51;17.67;;;9.07;;
51286;SDS011;37364;46.974;18.916;2024-02-15T00:41:25;9.98;;;8.57;;
51286;SDS011;37364;46.974;18.916;2024-02-15T00:43:55;15.45;;;8.40;;
51286;SDS011;37364;46.974;18.916;2024-02-15T00:46:28;19.35;;;9.25;;
51286;SDS011;37364;46.974;18.916;2024-02-15T00:48:59;18.75;;;8.98;;
51286;SDS011;37364;46.974;18.916;2024-02-15T00:51:33;19.88;;;8.88;;
51286;SDS011;37364;46.974;18.916;2024-02-15T00:54:06;15.57;;;8.35;;
51286;SDS011;37364;46.974;18.916;2024-02-15T00:56:36;13.23;;;7.80;;
51286;SDS011;37364;46.974;18.916;2024-02-15T00:59:06;12.75;;;8.10;;
51286;SDS011;37364;46.974;18.916;2024-02-15T01:01:36;16.05;;;8.43;;
51286;SDS011;37364;46.974;18.916;2024-02-15T01:04:07;15.55;;;9.25;;
51286;SDS011;37364;46.974;18.916;2024-02-15T01:06:40;18.55;;;8.63;;
51286;SDS011;37364;46.974;18.916;2024-02-15T01:09:13;19.63;;;8.80;;
51286;SDS011;37364;46.974;18.916;2024-02-15T01:11:47;12.27;;;7.10;;
51286;SDS011;37364;46.974;18.916;2024-02-15T01:14:21;16.23;;;8.95;;
51286;SDS011;37364;46.974;18.916;2024-02-15T01:16:54;18.77;;;9.30;;
51286;SDS011;37364;46.974;18.916;2024-02-15T01:19:24;13.77;;;8.52;;
51286;SDS011;37364;46.974;18.916;2024-02-15T01:21:56;12.30;;;7.90;;
51286;SDS011;37364;46.974;18.916;2024-02-15T01:24:29;12.00;;;7.93;;
51286;SDS011;37364;46.974;18.916;2024-02-15T01:26:59;14.50;;;8.77;;
51286;SDS011;37364;46.974;18.916;2024-02-15T01:29:29;19.88;;;8.52;;
51286;SDS011;37364;46.974;18.916;2024-02-15T01:31:59;11.40;;;7.90;;
51286;SDS011;37364;46.974;18.916;2024-02-15T01:34:37;13.60;;;8.80;;
51286;SDS011;37364;46.974;18.916;2024-02-15T01:37:11;15.47;;;8.07;;
51286;SDS011;37364;46.974;18.916;2024-02-15T01:39:42;13.18;;;9.07;;
51286;SDS011;37364;46.974;18.916;2024-02-15T01:42:12;17.70;;;8.93;;
51286;SDS011;37364;46.974;18.916;2024-02-15T01:44:42;13.75;;;8.02;;
51286;SDS011;37364;46.974;18.916;2024-02-15T01:47:17;17.65;;;9.35;;
51286;SDS011;37364;46.974;18.916;2024-02-15T01:49:49;18.48;;;10.07;;
51286;SDS011;37364;46.974;18.916;2024-02-15T01:52:26;18.10;;;9.38;;
51286;SDS011;37364;46.974;18.916;2024-02-15T01:54:57;16.00;;;10.30;;
51286;SDS011;37364;46.974;18.916;2024-02-15T01:57:29;17.30;;;9.55;;
51286;SDS011;37364;46.974;18.916;2024-02-15T01:59:59;18.10;;;10.52;;
51286;SDS011;37364;46.974;18.916;2024-02-15T02:02:34;17.30;;;10.55;;
51286;SDS011;37364;46.974;18.916;2024-02-15T02:05:07;15.95;;;10.25;;
51286;SDS011;37364;46.974;18.916;2024-02-15T02:07:40;28.55;;;10.88;;
51286;SDS011;37364;46.974;18.916;2024-02-15T02:10:11;17.63;;;10.18;;
51286;SDS011;37364;46.974;18.916;2024-02-15T02:12:42;20.95;;;11.15;;
51286;SDS011;37364;46.974;18.916;2024-02-15T02:15:12;17.80;;;11.20;;
51286;SDS011;37364;46.974;18.916;2024-02-15T02:17:48;18.40;;;10.85;;
51286;SDS011;37364;46.974;18.916;2024-02-15T02:20:18;19.63;;;11.25;;
51286;SDS011;37364;46.974;18.916;2024-02-15T02:22:54;19.55;;;10.77;;
51286;SDS011;37364;46.974;18.916;2024-02-15T02:25:36;17.50;;;11.00;;
51286;SDS011;37364;46.974;18.916;2024-02-15T02:28:08;18.23;;;10.40;;
51286;SDS011;37364;46.974;18.916;2024-02-15T02:30:47;18.95;;;10.75;;
51286;SDS011;37364;46.974;18.916;2024-02-15T02:33:19;20.15;;;11.48;;
51286;SDS011;37364;46.974;18.916;2024-02-15T02:35:51;23.25;;;11.30;;
51286;SDS011;37364;46.974;18.916;2024-02-15T02:38:24;21.33;;;11.07;;
51286;SDS011;37364;46.974;18.916;2024-02-15T02:40:57;19.15;;;10.73;;
51286;SDS011;37364;46.974;18.916;2024-02-15T02:43:30;18.08;;;10.80;;
51286;SDS011;37364;46.974;18.916;2024-02-15T02:46:03;23.00;;;11.03;;
51286;SDS011;37364;46.974;18.916;2024-02-15T02:48:35;16.33;;;11.30;;
51286;SDS011;37364;46.974;18.916;2024-02-15T02:51:08;16.63;;;11.10;;
51286;SDS011;37364;46.974;18.916;2024-02-15T02:53:39;21.75;;;12.65;;
51286;SDS011;37364;46.974;18.916;2024-02-15T02:56:11;20.88;;;11.93;;
51286;SDS011;37364;46.974;18.916;2024-02-15T03:01:12;20.08;;;11.50;;
51286;SDS011;37364;46.974;18.916;2024-02-15T03:03:49;25.42;;;12.30;;
51286;SDS011;37364;46.974;18.916;2024-02-15T03:06:21;18.33;;;11.93;;
51286;SDS011;37364;46.974;18.916;2024-02-15T03:08:52;13.95;;;10.80;;
51286;SDS011;37364;46.974;18.916;2024-02-15T03:11:25;17.83;;;11.43;;
51286;SDS011;37364;46.974;18.916;2024-02-15T03:13:57;20.20;;;11.02;;
51286;SDS011;37364;46.974;18.916;2024-02-15T03:16:27;18.77;;;10.45;;
51286;SDS011;37364;46.974;18.916;2024-02-15T03:18:57;18.48;;;11.43;;
51286;SDS011;37364;46.974;18.916;2024-02-15T03:21:27;21.27;;;12.30;;
51286;SDS011;37364;46.974;18.916;2024-02-15T03:23:58;18.92;;;11.23;;
51286;SDS011;37364;46.974;18.916;2024-02-15T03:26:33;19.00;;;11.30;;
51286;SDS011;37364;46.974;18.916;2024-02-15T03:29:06;25.83;;;12.27;;
51286;SDS011;37364;46.974;18.916;2024-02-15T03:31:37;20.10;;;11.63;;
51286;SDS011;37364;46.974;18.916;2024-02-15T03:34:06;17.95;;;10.20;;
51286;SDS011;37364;46.974;18.916;2024-02-15T03:36:37;20.20;;;10.98;;
51286;SDS011;37364;46.974;18.916;2024-02-15T03:39:07;21.23;;;11.82;;
51286;SDS011;37364;46.974;18.916;2024-02-15T03:41:40;19.98;;;11.30;;
51286;SDS011;37364;46.974;18.916;2024-02-15T03:44:12;17.55;;;11.18;;
51286;SDS011;37364;46.974;18.916;2024-02-15T03:46:44;15.35;;;11.20;;
51286;SDS011;37364;46.974;18.916;2024-02-15T03:49:17;18.42;;;12.10;;
51286;SDS011;37364;46.974;18.916;2024-02-15T03:51:48;15.43;;;11.73;;
51286;SDS011;37364;46.974;18.916;2024-02-15T03:54:21;21.48;;;11.93;;
51286;SDS011;37364;46.974;18.916;2024-02-15T03:56:54;21.63;;;11.63;;
51286;SDS011;37364;46.974;18.916;2024-02-15T03:59:47;18.92;;;12.10;;
51286;SDS011;37364;46.974;18.916;2024-02-15T04:02:19;16.02;;;11.93;;
51286;SDS011;37364;46.974;18.916;2024-02-15T04:04:51;19.73;;;12.02;;
51286;SDS011;37364;46.974;18.916;2024-02-15T04:07:23;23.30;;;13.20;;
51286;SDS011;37364;46.974;18.916;2024-02-15T04:09:55;26.30;;;13.07;;
51286;SDS011;37364;46.974;18.916;2024-02-15T04:12:28;18.85;;;12.00;;
51286;SDS011;37364;46.974;18.916;2024-02-15T04:14:58;20.83;;;12.50;;
51286;SDS011;37364;46.974;18.916;2024-02-15T04:17:34;19.08;;;12.93;;
51286;SDS011;37364;46.974;18.916;2024-02-15T04:20:04;18.73;;;11.77;;
51286;SDS011;37364;46.974;18.916;2024-02-15T04:22:39;24.00;;;12.73;;
51286;SDS011;37364;46.974;18.916;2024-02-15T04:25:14;22.55;;;11.63;;
51286;SDS011;37364;46.974;18.916;2024-02-15T04:27:48;19.20;;;13.05;;
51286;SDS011;37364;46.974;18.916;2024-02-15T04:32:51;25.15;;;11.90;;
51286;SDS011;37364;46.974;18.916;2024-02-15T04:35:23;20.90;;;12.68;;
51286;SDS011;37364;46.974;18.916;2024-02-15T04:37:53;32.00;;;12.90;;
51286;SDS011;37364;46.974;18.916;2024-02-15T04:40:25;21.15;;;12.10;;
51286;SDS011;37364;46.974;18.916;2024-02-15T04:42:58;24.52;;;12.77;;
51286;SDS011;37364;46.974;18.916;2024-02-15T04:45:31;22.13;;;12.30;;
51286;SDS011;37364;46.974;18.916;2024-02-15T04:48:02;19.30;;;12.63;;
51286;SDS011;37364;46.974;18.916;2024-02-15T04:50:35;16.45;;;11.70;;
51286;SDS011;37364;46.974;18.916;2024-02-15T04:53:12;24.20;;;13.15;;
51286;SDS011;37364;46.974;18.916;2024-02-15T04:55:53;20.80;;;12.70;;
51286;SDS011;37364;46.974;18.916;2024-02-15T05:01:07;16.67;;;11.23;;
51286;SDS011;37364;46.974;18.916;2024-02-15T05:03:37;27.45;;;13.05;;
51286;SDS011;37364;46.974;18.916;2024-02-15T05:06:11;16.75;;;12.30;;
51286;SDS011;37364;46.974;18.916;2024-02-15T05:08:43;29.55;;;13.30;;
51286;SDS011;37364;46.974;18.916;2024-02-15T05:11:16;20.88;;;13.07;;
51286;SDS011;37364;46.974;18.916;2024-02-15T05:13:55;35.80;;;15.43;;
51286;SDS011;37364;46.974;18.916;2024-02-15T05:16:26;18.85;;;13.23;;
51286;SDS011;37364;46.974;18.916;2024-02-15T05:18:58;26.88;;;13.82;;
51286;SDS011;37364;46.974;18.916;2024-02-15T05:21:28;34.25;;;13.57;;
51286;SDS011;37364;46.974;18.916;2024-02-15T05:24:01;23.20;;;13.53;;
51286;SDS011;37364;46.974;18.916;2024-02-15T05:26:31;22.58;;;12.95;;
51286;SDS011;37364;46.974;18.916;2024-02-15T05:29:07;18.10;;;12.82;;
51286;SDS011;37364;46.974;18.916;2024-02-15T05:31:38;19.85;;;13.55;;
51286;SDS011;37364;46.974;18.916;2024-02-15T05:34:10;25.70;;;14.40;;
51286;SDS011;37364;46.974;18.916;2024-02-15T05:36:40;32.33;;;14.98;;
51286;SDS011;37364;46.974;18.916;2024-02-15T05:39:12;18.67;;;13.20;;
51286;SDS011;37364;46.974;18.916;2024-02-15T05:41:45;23.45;;;13.93;;
51286;SDS011;37364;46.974;18.916;2024-02-15T05:44:22;25.63;;;15.50;;
51286;SDS011;37364;46.974;18.916;2024-02-15T05:46:52;28.17;;;15.20;;
51286;SDS011;37364;46.974;18.916;2024-02-15T05:49:23;27.77;;;15.70;;
51286;SDS011;37364;46.974;18.916;2024-02-15T05:51:53;28.90;;;15.57;;
51286;SDS011;37364;46.974;18.916;2024-02-15T05:54:26;25.97;;;14.17;;
51286;SDS011;37364;46.974;18.916;2024-02-15T05:56:56;26.55;;;15.63;;
51286;SDS011;37364;46.974;18.916;2024-02-15T05:59:33;24.60;;;14.57;;
51286;SDS011;37364;46.974;18.916;2024-02-15T06:02:03;25.90;;;13.90;;
51286;SDS011;37364;46.974;18.916;2024-02-15T06:04:34;28.13;;;14.50;;
51286;SDS011;37364;46.974;18.916;2024-02-15T06:07:05;23.65;;;13.85;;
51286;SDS011;37364;46.974;18.916;2024-02-15T06:09:37;25.35;;;14.70;;
51286;SDS011;37364;46.974;18.916;2024-02-15T06:12:07;22.05;;;14.05;;
51286;SDS011;37364;46.974;18.916;2024-02-15T06:14:40;32.85;;;13.77;;
51286;SDS011;37364;46.974;18.916;2024-02-15T06:17:10;24.67;;;13.60;;
51286;SDS011;37364;46.974;18.916;2024-02-15T06:19:41;21.05;;;13.70;;
51286;SDS011;37364;46.974;18.916;2024-02-15T06:22:12;21.95;;;15.45;;
51286;SDS011;37364;46.974;18.916;2024-02-15T06:24:47;20.70;;;14.25;;
51286;SDS011;37364;46.974;18.916;2024-02-15T06:27:18;23.70;;;14.35;;
51286;SDS011;37364;46.974;18.916;2024-02-15T06:29:54;18.83;;;13.50;;
51286;SDS011;37364;46.974;18.916;2024-02-15T06:32:37;25.55;;;14.23;;
51286;SDS011;37364;46.974;18.916;2024-02-15T06:35:19;25.38;;;17.63;;
51286;SDS011;37364;46.974;18.916;2024-02-15T06:38:05;32.55;;;18.17;;
51286;SDS011;37364;46.974;18.916;2024-02-15T06:40:53;27.45;;;16.00;;
51286;SDS011;37364;46.974;18.916;2024-02-15T06:43:24;24.75;;;16.33;;
51286;SDS011;37364;46.974;18.916;2024-02-15T06:45:58;23.80;;;15.77;;
51286;SDS011;37364;46.974;18.916;2024-02-15T06:48:30;23.65;;;16.58;;
51286;SDS011;37364;46.974;18.916;2024-02-15T06:51:03;29.80;;;15.50;;
51286;SDS011;37364;46.974;18.916;2024-02-15T06:53:40;26.58;;;15.63;;
51286;SDS011;37364;46.974;18.916;2024-02-15T06:56:10;32.72;;;14.57;;
51286;SDS011;37364;46.974;18.916;2024-02-15T06:58:43;23.38;;;14.57;;
51286;SDS011;37364;46.974;18.916;2024-02-15T07:01:17;24.77;;;14.45;;
51286;SDS011;37364;46.974;18.916;2024-02-15T07:03:48;21.55;;;15.77;;
51286;SDS011;37364;46.974;18.916;2024-02-15T07:06:20;27.33;;;15.38;;
51286;SDS011;37364;46.974;18.916;2024-02-15T07:08:51;31.90;;;17.25;;
51286;SDS011;37364;46.974;18.916;2024-02-15T07:11:23;21.30;;;14.90;;
51286;SDS011;37364;46.974;18.916;2024-02-15T07:13:54;24.27;;;15.95;;
51286;SDS011;37364;46.974;18.916;2024-02-15T07:16:27;20.13;;;15.82;;
51286;SDS011;37364;46.974;18.916;2024-02-15T07:18:57;25.70;;;18.92;;
51286;SDS011;37364;46.974;18.916;2024-02-15T07:21:29;30.65;;;19.83;;
51286;SDS011;37364;46.974;18.916;2024-02-15T07:24:03;31.33;;;18.40;;
51286;SDS011;37364;46.974;18.916;2024-02-15T07:26:36;35.00;;;18.13;;
51286;SDS011;37364;46.974;18.916;2024-02-15T07:29:06;31.42;;;16.08;;
51286;SDS011;37364;46.974;18.916;2024-02-15T07:31:40;26.88;;;15.60;;
51286;SDS011;37364;46.974;18.916;2024-02-15T07:34:10;29.55;;;14.95;;
51286;SDS011;37364;46.974;18.916;2024-02-15T07:36:41;21.92;;;15.85;;
51286;SDS011;37364;46.974;18.916;2024-02-15T07:39:15;22.65;;;15.43;;
51286;SDS011;37364;46.974;18.916;2024-02-15T07:41:50;22.88;;;14.48;;
51286;SDS011;37364;46.974;18.916;2024-02-15T07:44:27;23.48;;;15.85;;
51286;SDS011;37364;46.974;18.916;2024-02-15T07:47:01;25.60;;;15.13;;
51286;SDS011;37364;46.974;18.916;2024-02-15T07:49:32;22.77;;;14.48;;
51286;SDS011;37364;46.974;18.916;2024-02-15T07:52:04;22.73;;;15.50;;
51286;SDS011;37364;46.974;18.916;2024-02-15T07:54:37;21.00;;;14.50;;
51286;SDS011;37364;46.974;18.916;2024-02-15T07:57:07;24.42;;;15.13;;
51286;SDS011;37364;46.974;18.916;2024-02-15T07:59:37;27.80;;;15.30;;
51286;SDS011;37364;46.974;18.916;2024-02-15T08:02:11;28.55;;;15.30;;
51286;SDS011;37364;46.974;18.916;2024-02-15T08:04:49;26.15;;;16.15;;
51286;SDS011;37364;46.974;18.916;2024-02-15T08:07:20;28.75;;;15.68;;
51286;SDS011;37364;46.974;18.916;2024-02-15T08:09:50;39.35;;;15.50;;
51286;SDS011;37364;46.974;18.916;2024-02-15T08:12:20;39.88;;;16.17;;
51286;SDS011;37364;46.974;18.916;2024-02-15T08:14:55;25.73;;;16.17;;
51286;SDS011;37364;46.974;18.916;2024-02-15T08:17:29;22.08;;;15.00;;
51286;SDS011;37364;46.974;18.916;2024-02-15T08:19:59;32.37;;;16.67;;
51286;SDS011;37364;46.974;18.916;2024-02-15T08:22:33;21.70;;;15.73;;
51286;SDS011;37364;46.974;18.916;2024-02-15T08:25:06;30.67;;;16.08;;
51286;SDS011;37364;46.974;18.916;2024-02-15T08:27:37;30.05;;;15.27;;
51286;SDS011;37364;46.974;18.916;2024-02-15T08:30:11;33.80;;;13.85;;
51286;SDS011;37364;46.974;18.916;2024-02-15T08:32:47;23.23;;;13.07;;
51286;SDS011;37364;46.974;18.916;2024-02-15T08:35:20;22.80;;;14.52;;
51286;SDS011;37364;46.974;18.916;2024-02-15T08:37:51;23.38;;;14.63;;
51286;SDS011;37364;46.974;18.916;2024-02-15T08:40:21;18.98;;;12.55;;
51286;SDS011;37364;46.974;18.916;2024-02-15T08:42:54;22.00;;;13.85;;
51286;SDS011;37364;46.974;18.916;2024-02-15T08:45:26;19.42;;;14.13;;
51286;SDS011;37364;46.974;18.916;2024-02-15T08:48:02;23.92;;;14.35;;
51286;SDS011;37364;46.974;18.916;2024-02-15T08:50:33;31.02;;;14.65;;
51286;SDS011;37364;46.974;18.916;2024-02-15T08:53:03;23.38;;;13.73;;
51286;SDS011;37364;46.974;18.916;2024-02-15T08:55:34;25.67;;;15.40;;
51286;SDS011;37364;46.974;18.916;2024-02-15T08:58:05;33.80;;;14.00;;
51286;SDS011;37364;46.974;18.916;2024-02-15T09:00:38;30.30;;;14.63;;
51286;SDS011;37364;46.974;18.916;2024-02-15T09:03:16;28.08;;;14.38;;
51286;SDS011;37364;46.974;18.916;2024-02-15T09:05:46;30.73;;;14.60;;
51286;SDS011;37364;46.974;18.916;2024-02-15T09:08:18;22.95;;;14.30;;
51286;SDS011;37364;46.974;18.916;2024-02-15T09:10:49;31.35;;;14.40;;
51286;SDS011;37364;46.974;18.916;2024-02-15T09:13:20;21.40;;;14.43;;
51286;SDS011;37364;46.974;18.916;2024-02-15T09:15:56;23.02;;;13.88;;
51286;SDS011;37364;46.974;18.916;2024-02-15T09:18:28;26.50;;;14.25;;
51286;SDS011;37364;46.974;18.916;2024-02-15T09:21:00;31.15;;;16.23;;
51286;SDS011;37364;46.974;18.916;2024-02-15T09:23:31;20.75;;;13.80;;
51286;SDS011;37364;46.974;18.916;2024-02-15T09:26:01;25.40;;;13.20;;
51286;SDS011;37364;46.974;18.916;2024-02-15T09:28:32;19.23;;;13.38;;
51286;SDS011;37364;46.974;18.916;2024-02-15T09:31:02;26.00;;;14.65;;
51286;SDS011;37364;46.974;18.916;2024-02-15T09:33:35;28.67;;;12.63;;
51286;SDS011;37364;46.974;18.916;2024-02-15T09:36:08;22.98;;;13.88;;
51286;SDS011;37364;46.974;18.916;2024-02-15T09:38:39;23.27;;;15.23;;
51286;SDS011;37364;46.974;18.916;2024-02-15T09:41:13;28.83;;;14.60;;
51286;SDS011;37364;46.974;18.916;2024-02-15T09:43:43;26.80;;;18.17;;
51286;SDS011;37364;46.974;18.916;2024-02-15T09:46:14;29.77;;;16.95;;
51286;SDS011;37364;46.974;18.916;2024-02-15T09:48:49;35.10;;;20.30;;
51286;SDS011;37364;46.974;18.916;2024-02-15T09:51:25;27.08;;;16.45;;
51286;SDS011;37364;46.974;18.916;2024-02-15T09:53:57;22.35;;;16.50;;
51286;SDS011;37364;46.974;18.916;2024-02-15T09:56:30;41.37;;;24.00;;
51286;SDS011;37364;46.974;18.916;2024-02-15T09:59:02;26.48;;;16.85;;
51286;SDS011;37364;46.974;18.916;2024-02-15T10:01:36;42.53;;;22.17;;
51286;SDS011;37364;46.974;18.916;2024-02-15T10:04:10;29.58;;;17.48;;
51286;SDS011;37364;46.974;18.916;2024-02-15T10:06:42;42.28;;;18.48;;
51286;SDS011;37364;46.974;18.916;2024-02-15T10:09:28;28.77;;;17.65;;
51286;SDS011;37364;46.974;18.916;2024-02-15T10:12:02;34.88;;;16.50;;
51286;SDS011;37364;46.974;18.916;2024-02-15T10:14:37;34.05;;;18.90;;
51286;SDS011;37364;46.974;18.916;2024-02-15T10:17:13;36.47;;;16.88;;
51286;SDS011;37364;46.974;18.916;2024-02-15T10:19:46;31.63;;;17.42;;
51286;SDS011;37364;46.974;18.916;2024-02-15T10:22:32;33.42;;;17.85;;
51286;SDS011;37364;46.974;18.916;2024-02-15T10:27:52;35.03;;;18.23;;
51286;SDS011;37364;46.974;18.916;2024-02-15T10:30:39;39.22;;;20.35;;
51286;SDS011;37364;46.974;18.916;2024-02-15T10:33:18;32.55;;;18.92;;
51286;SDS011;37364;46.974;18.916;2024-02-15T10:35:53;33.25;;;19.10;;
51286;SDS011;37364;46.974;18.916;2024-02-15T10:38:39;41.58;;;20.45;;
51286;SDS011;37364;46.974;18.916;2024-02-15T10:41:12;52.27;;;19.10;;
51286;SDS011;37364;46.974;18.916;2024-02-15T10:43:43;48.17;;;20.15;;
51286;SDS011;37364;46.974;18.916;2024-02-15T10:46:18;26.92;;;17.48;;
51286;SDS011;37364;46.974;18.916;2024-02-15T10:48:54;26.13;;;18.70;;
51286;SDS011;37364;46.974;18.916;2024-02-15T10:51:31;44.10;;;23.10;;
51286;SDS011;37364;46.974;18.916;2024-02-15T10:54:03;41.47;;;19.05;;
51286;SDS011;37364;46.974;18.916;2024-02-15T10:56:41;29.00;;;14.32;;
51286;SDS011;37364;46.974;18.916;2024-02-15T10:59:16;26.52;;;18.17;;
51286;SDS011;37364;46.974;18.916;2024-02-15T11:01:50;25.88;;;15.15;;
51286;SDS011;37364;46.974;18.916;2024-02-15T11:04:31;26.02;;;15.10;;
51286;SDS011;37364;46.974;18.916;2024-02-15T11:07:07;23.10;;;14.02;;
51286;SDS011;37364;46.974;18.916;2024-02-15T11:09:38;27.38;;;14.98;;
51286;SDS011;37364;46.974;18.916;2024-02-15T11:12:09;26.02;;;15.75;;
51286;SDS011;37364;46.974;18.916;2024-02-15T11:14:42;22.48;;;14.98;;
51286;SDS011;37364;46.974;18.916;2024-02-15T11:23:26;34.45;;;14.98;;
51286;SDS011;37364;46.974;18.916;2024-02-15T11:26:03;30.85;;;19.10;;
51286;SDS011;37364;46.974;18.916;2024-02-15T11:28:37;36.70;;;21.45;;
51286;SDS011;37364;46.974;18.916;2024-02-15T11:31:09;39.45;;;24.13;;
51286;SDS011;37364;46.974;18.916;2024-02-15T11:33:44;34.58;;;15.68;;
51286;SDS011;37364;46.974;18.916;2024-02-15T11:36:14;27.48;;;16.48;;
51286;SDS011;37364;46.974;18.916;2024-02-15T11:38:49;32.08;;;16.65;;
51286;SDS011;37364;46.974;18.916;2024-02-15T11:41:23;21.23;;;14.35;;
51286;SDS011;37364;46.974;18.916;2024-02-15T11:43:58;26.75;;;14.25;;
51286;SDS011;37364;46.974;18.916;2024-02-15T11:46:29;37.90;;;15.27;;
51286;SDS011;37364;46.974;18.916;2024-02-15T11:49:01;32.40;;;14.93;;
51286;SDS011;37364;46.974;18.916;2024-02-15T11:51:32;34.03;;;15.55;;
51286;SDS011;37364;46.974;18.916;2024-02-15T11:54:13;19.80;;;14.38;;
51286;SDS011;37364;46.974;18.916;2024-02-15T11:56:50;22.45;;;14.18;;
51286;SDS011;37364;46.974;18.916;2024-02-15T11:59:38;24.85;;;14.98;;
51286;SDS011;37364;46.974;18.916;2024-02-15T12:02:20;29.77;;;14.98;;
51286;SDS011;37364;46.974;18.916;2024-02-15T12:05:03;23.67;;;14.52;;
51286;SDS011;37364;46.974;18.916;2024-02-15T12:07:57;22.95;;;14.77;;
51286;SDS011;37364;46.974;18.916;2024-02-15T12:10:43;20.38;;;14.30;;
51286;SDS011;37364;46.974;18.916;2024-02-15T12:13:25;25.05;;;15.30;;
51286;SDS011;37364;46.974;18.916;2024-02-15T12:16:07;24.20;;;15.05;;
51286;SDS011;37364;46.974;18.916;2024-02-15T12:18:50;25.33;;;17.67;;
51286;SDS011;37364;46.974;18.916;2024-02-15T12:21:23;73.15;;;39.97;;
51286;SDS011;37364;46.974;18.916;2024-02-15T12:23:55;40.15;;;23.83;;
51286;SDS011;37364;46.974;18.916;2024-02-15T12:26:28;17.05;;;13.10;;
51286;SDS011;37364;46.974;18.916;2024-02-15T12:29:01;19.88;;;13.60;;
51286;SDS011;37364;46.974;18.916;2024-02-15T12:31:33;25.35;;;16.02;;
51286;SDS011;37364;46.974;18.916;2024-02-15T12:34:06;24.75;;;13.88;;
51286;SDS011;37364;46.974;18.916;2024-02-15T12:36:38;26.08;;;15.40;;
51286;SDS011;37364;46.974;18.916;2024-02-15T12:39:09;23.85;;;12.57;;
51286;SDS011;37364;46.974;18.916;2024-02-15T12:41:49;35.53;;;16.70;;
51286;SDS011;37364;46.974;18.916;2024-02-15T12:44:22;34.50;;;15.23;;
51286;SDS011;37364;46.974;18.916;2024-02-15T12:46:54;30.20;;;16.42;;
51286;SDS011;37364;46.974;18.916;2024-02-15T12:49:30;34.45;;;18.98;;
51286;SDS011;37364;46.974;18.916;2024-02-15T12:55:06;22.10;;;12.23;;
51286;SDS011;37364;46.974;18.916;2024-02-15T12:57:43;19.33;;;13.38;;
51286;SDS011;37364;46.974;18.916;2024-02-15T13:00:17;26.38;;;15.23;;
51286;SDS011;37364;46.974;18.916;2024-02-15T13:02:55;30.95;;;16.40;;
51286;SDS011;37364;46.974;18.916;2024-02-15T13:05:31;26.70;;;15.38;;
51286;SDS011;37364;46.974;18.916;2024-02-15T13:08:01;28.35;;;14.02;;
51286;SDS011;37364;46.974;18.916;2024-02-15T13:10:36;22.42;;;14.38;;
51286;SDS011;37364;46.974;18.916;2024-02-15T13:13:12;25.73;;;14.32;;
51286;SDS011;37364;46.974;18.916;2024-02-15T13:15:47;20.52;;;14.23;;
51286;SDS011;37364;46.974;18.916;2024-02-15T13:18:19;26.60;;;14.00;;
51286;SDS011;37364;46.974;18.916;2024-02-15T13:20:49;18.42;;;13.38;;
51286;SDS011;37364;46.974;18.916;2024-02-15T13:23:23;26.02;;;15.13;;
51286;SDS011;37364;46.974;18.916;2024-02-15T13:25:53;30.25;;;17.27;;
51286;SDS011;37364;46.974;18.916;2024-02-15T13:28:26;30.77;;;15.63;;
51286;SDS011;37364;46.974;18.916;2024-02-15T13:30:57;23.77;;;14.40;;
51286;SDS011;37364;46.974;18.916;2024-02-15T13:33:29;24.80;;;13.55;;
51286;SDS011;37364;46.974;18.916;2024-02-15T13:36:00;19.77;;;13.40;;
51286;SDS011;37364;46.974;18.916;2024-02-15T13:38:37;21.15;;;13.73;;
51286;SDS011;37364;46.974;18.916;2024-02-15T13:41:10;22.73;;;13.65;;
51286;SDS011;37364;46.974;18.916;2024-02-15T13:43:42;26.13;;;16.23;;
51286;SDS011;37364;46.974;18.916;2024-02-15T13:46:12;27.38;;;15.50;;
51286;SDS011;37364;46.974;18.916;2024-02-15T13:48:43;25.17;;;15.93;;
51286;SDS011;37364;46.974;18.916;2024-02-15T13:51:13;25.88;;;15.77;;
51286;SDS011;37364;46.974;18.916;2024-02-15T13:53:45;23.25;;;14.65;;
51286;SDS011;37364;46.974;18.916;2024-02-15T13:56:16;23.70;;;15.02;;
51286;SDS011;37364;46.974;18.916;2024-02-15T13:58:51;26.75;;;14.77;;
51286;SDS011;37364;46.974;18.916;2024-02-15T14:01:27;25.23;;;15.48;;
51286;SDS011;37364;46.974;18.916;2024-02-15T14:03:57;31.30;;;17.52;;
51286;SDS011;37364;46.974;18.916;2024-02-15T14:06:27;22.73;;;15.32;;
51286;SDS011;37364;46.974;18.916;2024-02-15T14:08:57;22.90;;;15.50;;
51286;SDS011;37364;46.974;18.916;2024-02-15T14:11:31;28.92;;;15.25;;
51286;SDS011;37364;46.974;18.916;2024-02-15T14:14:06;24.95;;;14.35;;
51286;SDS011;37364;46.974;18.916;2024-02-15T14:16:41;22.40;;;15.73;;
51286;SDS011;37364;46.974;18.916;2024-02-15T14:19:11;27.63;;;15.70;;
51286;SDS011;37364;46.974;18.916;2024-02-15T14:21:41;25.95;;;15.02;;
51286;SDS011;37364;46.974;18.916;2024-02-15T14:24:11;27.60;;;15.23;;
51286;SDS011;37364;46.974;18.916;2024-02-15T14:26:42;25.67;;;17.27;;
51286;SDS011;37364;46.974;18.916;2024-02-15T14:29:15;28.42;;;17.42;;
51286;SDS011;37364;46.974;18.916;2024-02-15T14:31:52;26.67;;;16.55;;
51286;SDS011;37364;46.974;18.916;2024-02-15T14:34:35;32.42;;;16.33;;
51286;SDS011;37364;46.974;18.916;2024-02-15T14:37:05;32.17;;;16.02;;
51286;SDS011;37364;46.974;18.916;2024-02-15T14:39:36;22.30;;;14.77;;
51286;SDS011;37364;46.974;18.916;2024-02-15T14:42:07;22.30;;;12.45;;
51286;SDS011;37364;46.974;18.916;2024-02-15T14:44:46;21.92;;;13.05;;
51286;SDS011;37364;46.974;18.916;2024-02-15T14:47:18;26.48;;;15.05;;
51286;SDS011;37364;46.974;18.916;2024-02-15T14:49:50;27.33;;;16.23;;
51286;SDS011;37364;46.974;18.916;2024-02-15T14:52:20;23.15;;;16.67;;
51286;SDS011;37364;46.974;18.916;2024-02-15T14:54:51;26.70;;;16.05;;
51286;SDS011;37364;46.974;18.916;2024-02-15T14:57:21;19.52;;;14.02;;
51286;SDS011;37364;46.974;18.916;2024-02-15T14:59:56;21.27;;;14.50;;
51286;SDS011;37364;46.974;18.916;2024-02-15T15:02:26;28.40;;;14.00;;
51286;SDS011;37364;46.974;18.916;2024-02-15T15:04:57;34.17;;;13.95;;